Terminal Aerodrome Forecast
Issued by NWS

Home | Current Version | Previous Version | Text Only | Print | Product List | Glossary On
Versions: 1 2 3 4 5 6 7 8 9 10 11 12 13 14
000
FTUS45 KABQ 042346
TAFLVS
TAF
KLVS 042346Z 0500/0524 24015KT P6SM VCSH SCT070 BKN120
     FM050400 21010KT P6SM VCSH SCT060 BKN090
     FM051100 20008KT P6SM BKN025
     FM051600 22015G22KT P6SM SCT070
     FM052000 22020G30KT P6SM FEW050 SCT120=

USA.gov is the U.S. government's official web portal to all federal, state and local government web resources and services.